Time;durP1;ratioP1;P1;durP2;ratioP2;P2;SDS_P1;SDS_P2;PMS_P1;PMS_P2;Temp;Humidity;BMP_temperature;BMP_pressure;BME280_temperature;BME280_humidity;BME280_pressure;Samples;Min_cycle;Max_cycle;Signal;HPM_P1;HPM_P2
2022/03/24 00:00:10;;;;;;;11.37;8.80;;;9.00;20.20;;;;;;10332980;28;20243;-75
2022/03/24 00:05:15;;;;;;;12.27;10.97;;;8.90;20.40;;;;;;10321733;28;20321;-76
2022/03/24 00:10:18;;;;;;;11.10;9.63;;;8.80;20.60;;;;;;10323606;28;20233;-76
2022/03/24 00:15:21;;;;;;;13.63;12.00;;;8.60;20.30;;;;;;10319814;28;20235;-76
2022/03/24 00:20:26;;;;;;;13.37;11.70;;;8.50;20.40;;;;;;10318291;28;20231;-76
2022/03/24 00:25:29;;;;;;;11.57;10.13;;;8.50;20.70;;;;;;10319834;28;20245;-75
2022/03/24 00:30:32;;;;;;;11.00;9.90;;;8.30;20.50;;;;;;10318357;28;20246;-76
2022/03/24 00:35:37;;;;;;;9.60;8.60;;;8.10;20.60;;;;;;10307186;28;20242;-75
2022/03/24 00:40:41;;;;;;;10.83;9.17;;;8.00;20.70;;;;;;10309108;28;20763;-75
2022/03/24 00:45:44;;;;;;;11.20;7.73;;;7.90;20.70;;;;;;10320159;28;20242;-76
2022/03/24 00:50:49;;;;;;;11.77;8.20;;;7.70;20.90;;;;;;10315816;28;20743;-75
2022/03/24 00:55:52;;;;;;;9.40;8.47;;;7.70;21.40;;;;;;10311170;28;20226;-75
2022/03/24 01:00:55;;;;;;;11.93;8.63;;;7.70;21.20;;;;;;10314685;28;20239;-75
2022/03/24 01:06:00;;;;;;;9.97;8.77;;;7.70;21.10;;;;;;10321828;28;20238;-76
2022/03/24 01:11:05;;;;;;;8.90;7.90;;;7.70;21.40;;;;;;10312850;28;20606;-75
2022/03/24 01:16:09;;;;;;;10.03;8.07;;;7.60;21.20;;;;;;10311509;28;20329;-76
2022/03/24 01:21:16;;;;;;;11.23;8.70;;;7.60;21.30;;;;;;10315915;28;20274;-76
2022/03/24 01:26:19;;;;;;;10.30;9.30;;;7.60;21.30;;;;;;10312538;28;20236;-75
2022/03/24 01:31:22;;;;;;;9.77;8.70;;;7.60;21.30;;;;;;10314674;28;20980;-75
2022/03/24 01:36:27;;;;;;;10.70;8.43;;;7.50;21.20;;;;;;10309202;28;20239;-76
2022/03/24 01:41:30;;;;;;;8.07;7.27;;;7.30;21.40;;;;;;10312036;28;20235;-76
2022/03/24 01:46:34;;;;;;;10.93;8.60;;;7.20;21.30;;;;;;10316468;28;20239;-75
2022/03/24 01:51:39;;;;;;;10.93;8.83;;;7.20;21.50;;;;;;10311708;28;20305;-77
2022/03/24 01:56:43;;;;;;;9.50;8.60;;;7.10;21.70;;;;;;10312026;28;20245;-76
2022/03/24 02:01:46;;;;;;;9.80;8.90;;;7.00;21.50;;;;;;10313450;28;20230;-75
2022/03/24 02:06:51;;;;;;;9.43;8.33;;;6.80;21.40;;;;;;10306403;28;20285;-76
2022/03/24 02:11:55;;;;;;;9.73;8.67;;;6.70;21.90;;;;;;10311839;28;20236;-75
2022/03/24 02:16:58;;;;;;;8.93;8.03;;;6.60;21.90;;;;;;10308874;28;20262;-76
2022/03/24 02:22:13;;;;;;;8.33;7.53;;;6.60;21.80;;;;;;10313944;28;20243;-76
2022/03/24 02:27:16;;;;;;;7.63;6.93;;;6.60;22.60;;;;;;10311252;28;20230;-76
2022/03/24 02:32:21;;;;;;;8.93;7.97;;;6.60;22.10;;;;;;10315657;28;20265;-75
2022/03/24 02:37:28;;;;;;;8.10;7.40;;;6.60;22.20;;;;;;10314092;28;20635;-77
2022/03/24 02:42:32;;;;;;;8.47;7.40;;;6.60;22.30;;;;;;10318077;28;20752;-76
2022/03/24 02:47:35;;;;;;;9.47;8.13;;;6.60;22.10;;;;;;10308717;28;20237;-76
2022/03/24 02:52:40;;;;;;;9.90;7.40;;;6.70;22.10;;;;;;10319814;28;20239;-76
2022/03/24 02:57:43;;;;;;;9.43;8.37;;;6.60;22.10;;;;;;10314260;28;20321;-75
2022/03/24 03:02:47;;;;;;;9.20;8.30;;;6.40;21.90;;;;;;10319702;28;20235;-76
2022/03/24 03:07:52;;;;;;;9.60;8.60;;;6.30;21.90;;;;;;10310394;28;20235;-75
2022/03/24 03:12:57;;;;;;;9.10;8.20;;;6.10;22.30;;;;;;10316173;28;20230;-76
2022/03/24 03:18:00;;;;;;;8.60;7.70;;;5.90;22.10;;;;;;10312611;28;20734;-74
2022/03/24 03:23:04;;;;;;;9.87;8.23;;;5.90;22.20;;;;;;10313700;28;20237;-76
2022/03/24 03:28:08;;;;;;;7.93;7.13;;;5.80;22.70;;;;;;10310722;28;20228;-76
2022/03/24 03:33:11;;;;;;;7.80;7.00;;;5.70;22.60;;;;;;10318524;28;20246;-75
2022/03/24 03:38:16;;;;;;;7.83;7.03;;;5.80;22.80;;;;;;10320739;28;20235;-76
2022/03/24 03:43:19;;;;;;;7.30;6.57;;;5.80;23.00;;;;;;10316197;28;20229;-76
2022/03/24 03:48:22;;;;;;;7.57;6.60;;;5.80;22.80;;;;;;10309868;28;20681;-76
2022/03/24 03:53:27;;;;;;;7.07;6.37;;;5.90;22.80;;;;;;10313374;28;20242;-75
2022/03/24 03:58:30;;;;;;;8.30;7.50;;;5.90;22.80;;;;;;10313045;28;20235;-76
2022/03/24 04:03:37;;;;;;;8.10;7.30;;;6.00;22.80;;;;;;10313595;28;20708;-77
2022/03/24 04:08:43;;;;;;;8.03;7.23;;;5.90;22.80;;;;;;10315677;28;20234;-75
2022/03/24 04:13:47;;;;;;;10.47;7.60;;;5.80;23.00;;;;;;10314103;28;20616;-76
2022/03/24 04:18:50;;;;;;;7.13;6.53;;;5.70;22.70;;;;;;10314087;28;20253;-73
2022/03/24 04:23:55;;;;;;;7.63;6.83;;;5.70;22.80;;;;;;10312969;28;20712;-77
2022/03/24 04:28:58;;;;;;;8.63;7.27;;;5.70;23.10;;;;;;10312305;28;20231;-76
2022/03/24 04:34:01;;;;;;;8.40;7.60;;;5.70;23.00;;;;;;10309323;28;20227;-77
2022/03/24 04:39:06;;;;;;;8.37;7.57;;;5.70;22.90;;;;;;10312978;28;20238;-74
2022/03/24 04:44:09;;;;;;;9.43;7.40;;;5.70;23.00;;;;;;10315833;28;20231;-76
2022/03/24 04:49:12;;;;;;;8.90;7.47;;;5.70;22.80;;;;;;10313234;28;20707;-76
2022/03/24 04:54:17;;;;;;;8.67;7.87;;;5.60;22.80;;;;;;10313035;28;20235;-75
2022/03/24 04:59:20;;;;;;;7.93;7.13;;;5.50;23.00;;;;;;10314733;28;20235;-76
2022/03/24 05:04:24;;;;;;;8.00;7.20;;;5.30;23.00;;;;;;10307287;28;20235;-76
2022/03/24 05:09:28;;;;;;;8.07;7.27;;;5.30;23.10;;;;;;10320120;28;20231;-76
2022/03/24 05:14:32;;;;;;;7.93;7.13;;;5.30;23.50;;;;;;10317465;28;20230;-74
2022/03/24 05:19:35;;;;;;;8.33;6.37;;;5.20;23.20;;;;;;10313878;28;20254;-75
2022/03/24 05:24:41;;;;;;;7.13;6.43;;;5.20;23.20;;;;;;10316330;28;20235;-75
2022/03/24 05:29:44;;;;;;;8.67;7.33;;;5.20;23.50;;;;;;10308716;28;20235;-75
2022/03/24 05:34:48;;;;;;;9.43;8.47;;;5.20;23.40;;;;;;10311724;28;22752;-76
2022/03/24 05:39:53;;;;;;;7.40;6.40;;;5.20;24.00;;;;;;10307887;28;20602;-73
2022/03/24 05:44:56;;;;;;;8.27;7.47;;;5.20;23.60;;;;;;10307912;28;20332;-77
2022/03/24 05:49:59;;;;;;;8.13;6.73;;;5.20;23.40;;;;;;10306039;28;20782;-75
2022/03/24 05:55:05;;;;;;;9.00;7.87;;;5.20;23.50;;;;;;10310501;28;20233;-77
2022/03/24 06:00:08;;;;;;;8.23;7.43;;;5.20;23.90;;;;;;10316778;28;20226;-76
2022/03/24 06:05:13;;;;;;;11.27;7.57;;;5.20;23.80;;;;;;10318638;28;20245;-74
2022/03/24 06:10:18;;;;;;;14.47;7.83;;;5.20;24.00;;;;;;10325380;28;20238;-75
2022/03/24 06:15:21;;;;;;;10.50;8.20;;;5.20;25.20;;;;;;10318420;28;20245;-74
2022/03/24 06:20:24;;;;;;;9.70;8.33;;;5.20;24.70;;;;;;10319749;28;20230;-76
2022/03/24 06:25:29;;;;;;;10.80;8.50;;;5.30;24.50;;;;;;10324213;28;20239;-76
2022/03/24 06:30:32;;;;;;;9.53;8.53;;;5.40;24.70;;;;;;10325843;28;20237;-75
2022/03/24 06:35:36;;;;;;;9.20;8.07;;;5.40;24.60;;;;;;10328333;28;20234;-76
2022/03/24 06:40:41;;;;;;;9.23;8.23;;;5.50;24.70;;;;;;10327938;28;20231;-75
2022/03/24 06:45:44;;;;;;;9.23;8.30;;;5.50;25.00;;;;;;10340077;28;20735;-75
2022/03/24 06:50:47;;;;;;;11.53;8.77;;;5.60;24.90;;;;;;10337936;28;20234;-75
2022/03/24 06:55:52;;;;;;;8.80;7.80;;;5.70;25.00;;;;;;10338749;28;20341;-76
2022/03/24 07:00:55;;;;;;;10.87;9.67;;;5.80;25.20;;;;;;10335794;28;20235;-75
2022/03/24 07:05:58;;;;;;;11.00;9.20;;;5.90;25.20;;;;;;10335049;28;20231;-76
2022/03/24 07:11:03;;;;;;;10.07;8.67;;;6.10;25.10;;;;;;10333423;28;20235;-76
2022/03/24 07:16:07;;;;;;;10.93;9.10;;;6.20;25.50;;;;;;10328780;28;20241;-75
2022/03/24 07:21:10;;;;;;;13.20;8.93;;;6.30;25.10;;;;;;10338094;28;20241;-76
2022/03/24 07:26:16;;;;;;;12.13;10.23;;;6.50;25.30;;;;;;10337060;28;20246;-75
2022/03/24 07:31:22;;;;;;;11.57;9.50;;;6.60;25.90;;;;;;10329424;28;20238;-74
2022/03/24 07:36:26;;;;;;;11.27;9.50;;;6.80;25.80;;;;;;10328503;28;20234;-75
2022/03/24 07:41:32;;;;;;;13.10;10.03;;;7.00;25.80;;;;;;10329199;28;20258;-74
2022/03/24 07:46:37;;;;;;;12.37;10.53;;;7.20;26.30;;;;;;10329223;28;20234;-75
2022/03/24 07:51:41;;;;;;;12.07;10.43;;;7.40;26.10;;;;;;10328920;28;20246;-75
2022/03/24 07:56:46;;;;;;;14.20;10.97;;;7.70;26.00;;;;;;10330009;28;20241;-74
2022/03/24 08:01:49;;;;;;;13.63;11.23;;;8.10;26.30;;;;;;10322095;28;20231;-75
2022/03/24 08:06:53;;;;;;;12.23;10.93;;;8.40;26.10;;;;;;10328727;28;20239;-75
2022/03/24 08:11:57;;;;;;;12.73;11.27;;;8.70;26.10;;;;;;10329132;28;20253;-74
2022/03/24 08:17:01;;;;;;;15.57;13.10;;;9.10;26.20;;;;;;10326744;28;20935;-75
2022/03/24 08:22:04;;;;;;;16.07;12.87;;;9.50;26.00;;;;;;10319546;28;20234;-75
2022/03/24 08:27:09;;;;;;;14.83;13.33;;;9.80;25.90;;;;;;10320284;28;20743;-76
2022/03/24 08:32:13;;;;;;;15.67;14.07;;;10.20;25.30;;;;;;10319759;28;20246;-76
2022/03/24 08:37:16;;;;;;;17.27;14.47;;;10.50;25.00;;;;;;10320467;28;20322;-76
2022/03/24 08:42:21;;;;;;;15.67;14.07;;;10.80;24.90;;;;;;10320045;28;20233;-75
2022/03/24 08:47:24;;;;;;;15.83;14.17;;;11.20;24.80;;;;;;10319748;28;20235;-75
2022/03/24 08:52:28;;;;;;;16.40;14.60;;;11.50;24.50;;;;;;10325282;28;20627;-77
2022/03/24 08:57:33;;;;;;;15.47;13.97;;;11.90;24.80;;;;;;10326592;28;20246;-76
2022/03/24 09:02:36;;;;;;;15.37;13.77;;;12.20;24.10;;;;;;10328538;28;20235;-76
2022/03/24 09:07:39;;;;;;;15.10;13.60;;;12.50;23.90;;;;;;10366771;28;20734;-76
2022/03/24 09:12:45;;;;;;;15.23;13.63;;;12.80;24.00;;;;;;10330239;28;20232;-76
2022/03/24 09:17:49;;;;;;;15.63;14.13;;;13.10;23.80;;;;;;10324402;28;20236;-76
2022/03/24 09:22:53;;;;;;;15.87;14.23;;;13.50;23.90;;;;;;10290701;28;20332;-76
2022/03/24 09:27:57;;;;;;;15.60;13.97;;;13.80;23.90;;;;;;10326209;28;20600;-77
2022/03/24 09:33:01;;;;;;;16.20;14.50;;;14.10;23.50;;;;;;10328378;28;20238;-76
2022/03/24 09:38:05;;;;;;;15.70;14.10;;;14.50;23.60;;;;;;10325385;28;20666;-78
2022/03/24 09:43:09;;;;;;;14.67;13.27;;;14.80;23.60;;;;;;10323926;28;20256;-77
2022/03/24 09:48:14;;;;;;;15.40;13.90;;;15.20;23.30;;;;;;10306202;28;20247;-77
2022/03/24 09:53:18;;;;;;;15.83;14.23;;;15.50;23.10;;;;;;10320908;28;20246;-76
2022/03/24 09:58:27;;;;;;;14.97;13.50;;;15.90;23.30;;;;;;10326462;28;20249;-77
2022/03/24 10:03:30;;;;;;;15.23;13.67;;;16.20;22.70;;;;;;10326174;28;20728;-77
2022/03/24 10:08:35;;;;;;;14.93;13.43;;;16.50;22.90;;;;;;10325974;28;20694;-77
2022/03/24 10:13:44;;;;;;;18.87;13.67;;;16.80;23.10;;;;;;10326438;28;20249;-77
2022/03/24 10:19:00;;;;;;;15.50;14.00;;;17.10;22.20;;;;;;10325645;28;20223;-77
2022/03/24 10:24:09;;;;;;;16.00;14.37;;;17.40;22.10;;;;;;10332067;28;20325;-77
2022/03/24 10:29:15;;;;;;;15.17;13.73;;;17.60;22.00;;;;;;10332975;28;20612;-77
2022/03/24 10:34:28;;;;;;;16.37;14.17;;;17.80;22.20;;;;;;10327355;28;20270;-77
2022/03/24 10:39:31;;;;;;;15.93;14.33;;;18.10;21.60;;;;;;10326708;28;20241;-78
2022/03/24 10:44:36;;;;;;;15.23;13.80;;;18.30;21.80;;;;;;10326263;28;20599;-77
2022/03/24 10:49:39;;;;;;;15.07;13.57;;;18.50;21.50;;;;;;10321417;28;20234;-76
2022/03/24 10:54:48;;;;;;;15.73;14.10;;;18.80;21.70;;;;;;10319802;28;20239;-78
2022/03/24 10:59:58;;;;;;;15.40;13.93;;;19.00;21.30;;;;;;10328706;28;20235;-79
2022/03/24 11:05:03;;;;;;;14.97;13.47;;;19.20;21.00;;;;;;10328417;28;20239;-79
2022/03/24 11:10:12;;;;;;;15.90;14.30;;;19.40;21.00;;;;;;10330352;28;20245;-77
2022/03/24 11:15:17;;;;;;;14.47;13.07;;;19.60;20.10;;;;;;10333814;28;20235;-77
2022/03/24 11:20:27;;;;;;;14.20;12.80;;;19.70;20.30;;;;;;10333465;28;20711;-77
2022/03/24 11:25:31;;;;;;;14.27;12.90;;;19.90;19.80;;;;;;10332540;28;20227;-77
2022/03/24 11:30:36;;;;;;;14.77;13.27;;;20.00;20.20;;;;;;10332974;28;20265;-77
2022/03/24 11:35:40;;;;;;;14.77;13.27;;;20.10;19.60;;;;;;10329109;28;20661;-78
2022/03/24 11:40:43;;;;;;;11.60;10.40;;;20.30;19.80;;;;;;10328813;28;20596;-79
2022/03/24 11:46:02;;;;;;;12.03;10.93;;;20.40;19.70;;;;;;10320458;28;20238;-78
2022/03/24 11:51:07;;;;;;;11.83;10.63;;;20.50;18.30;;;;;;10310379;28;20226;-76
2022/03/24 11:56:16;;;;;;;9.80;8.93;;;20.60;18.70;;;;;;10324329;28;20235;-78
2022/03/24 12:01:30;;;;;;;10.63;9.47;;;20.70;18.40;;;;;;10327339;28;20305;-78
2022/03/24 12:06:55;;;;;;;9.13;8.33;;;20.80;17.40;;;;;;10327336;28;20238;-78
2022/03/24 12:12:10;;;;;;;7.37;6.70;;;20.90;17.00;;;;;;10337044;28;20326;-78
2022/03/24 12:17:25;;;;;;;9.50;8.70;;;20.90;15.80;;;;;;10326742;28;20244;-78
2022/03/24 12:22:43;;;;;;;7.43;6.73;;;21.00;15.80;;;;;;10319781;28;20223;-78
2022/03/24 12:28:06;;;;;;;6.60;6.10;;;21.00;15.80;;;;;;10344918;28;20234;-79
2022/03/24 12:33:13;;;;;;;7.90;7.10;;;21.00;15.30;;;;;;10332625;28;20243;-79
2022/03/24 12:38:29;;;;;;;8.30;7.50;;;21.10;15.90;;;;;;10329336;28;20306;-79
2022/03/24 12:43:41;;;;;;;7.37;6.77;;;21.10;15.90;;;;;;10312073;28;20230;-77
2022/03/24 12:48:46;;;;;;;6.63;6.13;;;21.20;15.00;;;;;;10325094;28;20227;-77
2022/03/24 12:53:54;;;;;;;6.90;6.30;;;21.30;15.60;;;;;;10286764;28;20270;-77
2022/03/24 12:59:01;;;;;;;8.13;7.43;;;21.30;15.70;;;;;;10286133;28;20231;-77
2022/03/24 13:04:07;;;;;;;7.80;7.10;;;21.30;15.50;;;;;;10287625;28;20294;-77
2022/03/24 13:09:16;;;;;;;6.60;6.00;;;21.30;14.80;;;;;;10284622;28;20243;-76
2022/03/24 13:14:20;;;;;;;8.03;7.27;;;21.40;14.40;;;;;;10288230;28;20327;-76
2022/03/24 13:19:25;;;;;;;7.60;6.90;;;21.40;15.30;;;;;;10288447;28;20235;-77
2022/03/24 13:24:28;;;;;;;7.93;7.27;;;21.40;15.00;;;;;;10291406;28;20314;-78
2022/03/24 13:29:44;;;;;;;7.43;6.77;;;21.40;15.20;;;;;;10290721;28;20350;-79
2022/03/24 13:34:50;;;;;;;7.13;6.53;;;21.50;13.70;;;;;;10286514;28;20231;-77
2022/03/24 13:39:54;;;;;;;6.33;5.80;;;21.60;14.30;;;;;;10299274;28;20224;-79
2022/03/24 13:44:58;;;;;;;6.67;6.07;;;21.60;15.00;;;;;;10290247;28;20239;-78
2022/03/24 13:50:04;;;;;;;6.80;5.97;;;21.60;14.30;;;;;;10290477;28;20228;-79
2022/03/24 13:55:14;;;;;;;6.40;5.90;;;21.60;13.30;;;;;;10343569;28;20240;-78
2022/03/24 14:00:25;;;;;;;6.43;5.50;;;21.70;12.80;;;;;;10368065;28;20715;-78
2022/03/24 14:05:55;;;;;;;5.63;5.13;;;21.70;11.80;;;;;;10333100;28;20250;-79
2022/03/24 14:11:07;;;;;;;5.17;4.77;;;21.70;12.30;;;;;;10330728;28;20239;-78
2022/03/24 14:16:17;;;;;;;6.30;5.70;;;21.80;12.10;;;;;;10328867;28;20245;-78
2022/03/24 14:21:22;;;;;;;5.87;5.37;;;21.80;12.30;;;;;;10331192;28;20293;-77
2022/03/24 14:26:25;;;;;;;4.80;4.23;;;21.80;12.80;;;;;;10283020;28;20245;-76
2022/03/24 14:31:31;;;;;;;4.40;4.10;;;21.90;12.90;;;;;;10315491;28;20235;-77
2022/03/24 14:36:47;;;;;;;5.07;4.67;;;21.90;12.40;;;;;;10328099;28;20230;-78
2022/03/24 14:41:53;;;;;;;5.37;4.87;;;21.90;10.90;;;;;;10330369;28;20262;-78
2022/03/24 14:46:56;;;;;;;5.13;4.73;;;21.90;12.00;;;;;;10338548;28;20238;-78
2022/03/24 14:52:00;;;;;;;6.77;6.03;;;21.90;12.60;;;;;;10336904;28;20231;-80
2022/03/24 14:57:04;;;;;;;6.27;5.70;;;22.00;11.70;;;;;;10338817;28;20720;-80
2022/03/24 15:02:08;;;;;;;6.17;5.67;;;22.00;12.20;;;;;;10338140;28;20326;-78
2022/03/24 15:07:14;;;;;;;8.20;6.73;;;22.00;12.10;;;;;;10342600;28;20239;-76
2022/03/24 15:12:17;;;;;;;8.97;8.17;;;22.00;11.70;;;;;;10330759;28;20585;-77
2022/03/24 15:17:20;;;;;;;7.83;6.93;;;22.00;12.10;;;;;;10313284;28;20238;-77
2022/03/24 15:22:25;;;;;;;7.73;6.67;;;22.00;12.00;;;;;;10328762;28;20254;-76
2022/03/24 15:27:28;;;;;;;6.70;6.10;;;22.00;11.70;;;;;;10316675;28;20238;-77
2022/03/24 15:32:31;;;;;;;6.47;5.90;;;22.00;11.90;;;;;;10316472;28;20223;-77
2022/03/24 15:37:36;;;;;;;7.10;6.40;;;22.00;11.80;;;;;;10317692;28;20234;-78
2022/03/24 15:42:40;;;;;;;6.93;6.33;;;22.00;11.30;;;;;;10325176;28;20231;-77
2022/03/24 15:47:45;;;;;;;6.47;5.97;;;22.00;11.70;;;;;;10310057;28;20258;-77
2022/03/24 15:52:49;;;;;;;7.53;5.47;;;22.00;11.50;;;;;;10312355;28;20241;-78
2022/03/24 15:57:53;;;;;;;6.97;6.37;;;22.00;11.30;;;;;;10311109;28;20616;-77
2022/03/24 16:02:56;;;;;;;6.63;6.03;;;22.00;11.80;;;;;;10312572;28;20231;-77
2022/03/24 16:08:01;;;;;;;7.03;6.43;;;22.00;11.60;;;;;;10311465;28;20235;-77
2022/03/24 16:13:05;;;;;;;7.43;6.63;;;22.00;11.40;;;;;;10325673;28;20229;-76
2022/03/24 16:18:09;;;;;;;7.67;6.70;;;22.00;11.80;;;;;;10328755;28;20230;-76
2022/03/24 16:23:14;;;;;;;6.90;6.30;;;22.00;12.10;;;;;;10344812;28;20230;-75
2022/03/24 16:28:17;;;;;;;7.00;6.30;;;22.00;11.90;;;;;;10361095;28;20719;-76
2022/03/24 16:33:20;;;;;;;7.03;6.33;;;21.90;12.20;;;;;;10336042;28;20680;-77
2022/03/24 16:38:27;;;;;;;8.20;7.40;;;21.90;12.10;;;;;;10330457;28;20326;-76
2022/03/24 16:43:31;;;;;;;7.03;6.43;;;21.90;12.00;;;;;;10327469;28;20603;-76
2022/03/24 16:48:34;;;;;;;6.87;6.27;;;21.80;11.90;;;;;;10334034;28;20230;-76
2022/03/24 16:53:42;;;;;;;6.97;6.27;;;21.80;11.90;;;;;;10326652;28;20231;-76
2022/03/24 16:58:45;;;;;;;6.40;5.50;;;21.70;11.80;;;;;;10335571;28;20860;-76
2022/03/24 17:03:51;;;;;;;5.93;5.43;;;21.60;12.10;;;;;;10330765;28;20234;-76
2022/03/24 17:08:55;;;;;;;8.00;5.80;;;21.50;12.30;;;;;;10321387;28;20239;-76
2022/03/24 17:13:59;;;;;;;9.03;5.40;;;21.40;12.40;;;;;;10339512;28;20633;-76
2022/03/24 17:19:04;;;;;;;7.73;5.00;;;21.30;12.50;;;;;;10337477;28;20231;-76
2022/03/24 17:24:09;;;;;;;5.80;5.20;;;21.10;12.70;;;;;;10326287;28;20235;-76
2022/03/24 17:29:12;;;;;;;7.03;5.60;;;21.00;12.80;;;;;;10334477;28;20230;-76
2022/03/24 17:34:16;;;;;;;6.50;5.47;;;20.80;12.60;;;;;;10323691;28;20222;-76
2022/03/24 17:39:20;;;;;;;6.23;4.47;;;20.70;12.80;;;;;;10327774;28;20241;-75
2022/03/24 17:44:29;;;;;;;5.23;4.80;;;20.50;13.10;;;;;;10332431;28;20238;-78
2022/03/24 17:49:32;;;;;;;10.53;5.57;;;20.30;12.80;;;;;;10339271;28;20804;-77
2022/03/24 17:54:37;;;;;;;7.80;6.10;;;20.20;13.10;;;;;;10333999;28;20609;-77
2022/03/24 17:59:45;;;;;;;7.43;6.73;;;20.00;13.10;;;;;;10328240;28;20257;-78
2022/03/24 18:04:53;;;;;;;6.73;6.13;;;19.70;12.80;;;;;;10326815;28;20342;-78
2022/03/24 18:09:58;;;;;;;37.47;31.27;;;19.40;12.90;;;;;;10325269;28;20239;-78
2022/03/24 18:15:01;;;;;;;19.10;16.77;;;19.10;13.20;;;;;;10323767;28;20239;-79
2022/03/24 18:20:08;;;;;;;14.40;12.37;;;18.90;13.50;;;;;;10329955;28;20243;-79
2022/03/24 18:25:13;;;;;;;14.43;11.63;;;18.70;13.60;;;;;;10320428;28;20257;-79
2022/03/24 18:30:16;;;;;;;13.40;11.90;;;18.60;13.80;;;;;;10334729;28;20230;-79
2022/03/24 18:35:19;;;;;;;21.10;16.80;;;18.40;13.70;;;;;;10335341;28;20318;-78
2022/03/24 18:40:24;;;;;;;13.43;12.10;;;18.20;13.50;;;;;;10340672;28;20237;-78
2022/03/24 18:45:28;;;;;;;12.53;10.67;;;17.90;14.30;;;;;;10328698;28;20239;-79
2022/03/24 18:50:32;;;;;;;11.40;10.27;;;17.50;13.50;;;;;;10334508;28;20314;-78
2022/03/24 18:55:36;;;;;;;11.60;10.40;;;17.30;13.60;;;;;;10326018;28;20231;-79
2022/03/24 19:00:41;;;;;;;13.23;10.33;;;17.20;13.90;;;;;;10329459;28;20227;-78
2022/03/24 19:05:44;;;;;;;10.03;9.07;;;16.90;14.00;;;;;;10328778;28;20286;-79
2022/03/24 19:10:49;;;;;;;13.07;10.63;;;16.80;14.00;;;;;;10340217;28;20246;-78
2022/03/24 19:15:52;;;;;;;11.67;10.47;;;16.70;14.20;;;;;;10336068;28;20239;-78
2022/03/24 19:20:56;;;;;;;10.93;9.13;;;16.60;14.20;;;;;;10325702;28;20253;-78
2022/03/24 19:26:00;;;;;;;12.20;9.60;;;16.50;14.30;;;;;;10325545;28;20242;-79
2022/03/24 19:31:03;;;;;;;14.37;10.63;;;16.40;14.50;;;;;;10322599;28;20219;-78
2022/03/24 19:36:07;;;;;;;11.77;9.47;;;16.30;14.30;;;;;;10338111;28;20531;-78
2022/03/24 19:41:11;;;;;;;18.63;16.93;;;16.20;14.40;;;;;;10324488;28;20241;-78
2022/03/24 19:46:15;;;;;;;15.77;12.00;;;16.00;15.30;;;;;;10327809;28;20243;-78
2022/03/24 19:51:18;;;;;;;10.83;9.73;;;15.90;14.70;;;;;;10338754;28;20237;-79
2022/03/24 19:56:24;;;;;;;11.70;9.87;;;15.80;14.70;;;;;;10335293;28;20243;-79
2022/03/24 20:01:28;;;;;;;11.10;9.33;;;15.70;15.00;;;;;;10320253;28;20589;-79
2022/03/24 20:06:33;;;;;;;15.33;12.23;;;15.60;15.00;;;;;;10325602;28;20242;-79
2022/03/24 20:11:38;;;;;;;10.70;9.23;;;15.50;14.80;;;;;;10322925;28;20636;-80
2022/03/24 20:16:45;;;;;;;17.77;13.67;;;15.20;14.70;;;;;;10321303;28;20382;-77
2022/03/24 20:21:49;;;;;;;18.73;16.73;;;15.00;14.70;;;;;;10316498;28;20259;-77
2022/03/24 20:26:57;;;;;;;15.43;13.33;;;14.70;14.90;;;;;;10319168;28;20238;-77
2022/03/24 20:32:01;;;;;;;12.87;11.37;;;14.50;15.20;;;;;;10318350;28;20223;-77
2022/03/24 20:37:05;;;;;;;15.23;11.50;;;14.40;15.30;;;;;;10307239;28;20238;-78
2022/03/24 20:42:10;;;;;;;13.77;12.13;;;14.20;15.40;;;;;;10316526;28;20241;-78
2022/03/24 20:47:14;;;;;;;14.57;11.87;;;14.00;15.40;;;;;;10305022;28;20243;-77
2022/03/24 20:52:17;;;;;;;17.70;11.53;;;13.70;15.30;;;;;;10301964;28;20494;-77
2022/03/24 20:57:24;;;;;;;14.83;10.53;;;13.50;15.50;;;;;;10302559;28;20227;-78
2022/03/24 21:02:27;;;;;;;13.37;9.97;;;13.20;16.10;;;;;;10325118;28;20226;-77
2022/03/24 21:07:31;;;;;;;13.83;10.07;;;13.10;15.80;;;;;;10306302;28;20238;-74
2022/03/24 21:12:35;;;;;;;12.30;11.10;;;13.00;15.80;;;;;;10296986;28;20246;-74
2022/03/24 21:17:40;;;;;;;11.40;10.20;;;12.90;16.20;;;;;;10296707;28;20574;-75
2022/03/24 21:22:44;;;;;;;13.47;10.70;;;12.80;16.10;;;;;;10303864;28;20227;-74
2022/03/24 21:27:49;;;;;;;14.60;10.23;;;12.50;16.10;;;;;;10308117;28;20262;-74
2022/03/24 21:32:54;;;;;;;15.70;10.90;;;12.30;16.40;;;;;;10318312;28;20250;-74
2022/03/24 21:37:58;;;;;;;14.77;11.20;;;12.20;16.40;;;;;;10317408;28;20262;-75
2022/03/24 21:43:03;;;;;;;13.40;10.93;;;12.00;16.50;;;;;;10316403;28;20233;-75
2022/03/24 21:48:07;;;;;;;13.30;11.50;;;11.90;17.00;;;;;;10319921;28;20253;-75
2022/03/24 21:53:11;;;;;;;14.90;12.83;;;11.80;16.80;;;;;;10317296;28;20321;-75
2022/03/24 21:58:15;;;;;;;12.37;10.77;;;11.70;16.80;;;;;;10315602;28;20239;-73
2022/03/24 22:03:19;;;;;;;11.03;9.63;;;11.60;17.00;;;;;;10320102;28;20318;-73
2022/03/24 22:08:22;;;;;;;10.50;9.10;;;11.50;16.90;;;;;;10321705;28;20238;-73
2022/03/24 22:13:27;;;;;;;11.13;9.80;;;11.40;17.00;;;;;;10322059;28;20325;-73
2022/03/24 22:18:31;;;;;;;10.93;9.70;;;11.40;17.40;;;;;;10321729;28;20234;-73
2022/03/24 22:23:34;;;;;;;13.40;11.70;;;11.40;17.20;;;;;;10321769;28;20246;-72
2022/03/24 22:28:39;;;;;;;14.30;11.43;;;11.40;17.30;;;;;;10321770;28;20333;-72
2022/03/24 22:33:42;;;;;;;14.50;12.03;;;11.20;17.90;;;;;;10321446;28;20237;-73
2022/03/24 22:38:45;;;;;;;17.60;14.37;;;11.00;17.20;;;;;;10321541;28;20673;-72
2022/03/24 22:43:50;;;;;;;15.93;14.07;;;10.80;17.30;;;;;;10301690;28;20219;-74
2022/03/24 22:48:53;;;;;;;16.40;13.23;;;10.70;17.80;;;;;;10300316;28;20604;-75
2022/03/24 22:53:57;;;;;;;14.47;12.20;;;10.60;17.60;;;;;;10305099;28;20242;-74
2022/03/24 22:59:01;;;;;;;18.90;12.17;;;10.50;17.70;;;;;;10299985;28;20258;-74
2022/03/24 23:04:05;;;;;;;16.27;12.00;;;10.40;18.00;;;;;;10300000;28;20254;-74
2022/03/24 23:09:08;;;;;;;15.20;12.87;;;10.30;17.80;;;;;;10305961;28;20739;-74
2022/03/24 23:14:13;;;;;;;14.80;10.73;;;10.20;18.10;;;;;;10305962;28;20239;-75
2022/03/24 23:19:18;;;;;;;14.60;10.60;;;10.00;18.50;;;;;;10302981;28;20302;-74
2022/03/24 23:24:21;;;;;;;9.83;8.83;;;10.00;18.30;;;;;;10306116;28;20596;-74
2022/03/24 23:29:26;;;;;;;11.27;10.07;;;9.90;19.20;;;;;;10306976;28;20591;-75
2022/03/24 23:34:29;;;;;;;12.07;10.33;;;9.80;19.10;;;;;;10306727;28;20242;-74
2022/03/24 23:39:33;;;;;;;10.23;8.70;;;9.80;19.10;;;;;;10306004;28;21012;-74
2022/03/24 23:44:38;;;;;;;11.17;9.83;;;9.80;19.70;;;;;;10304683;28;20245;-74
2022/03/24 23:49:41;;;;;;;19.73;13.60;;;9.80;19.20;;;;;;10305495;28;20262;-74
2022/03/24 23:54:44;;;;;;;20.07;14.07;;;9.70;19.10;;;;;;10298238;28;20297;-74
2022/03/24 23:59:49;;;;;;;37.17;22.30;;;9.80;19.10;;;;;;10306274;28;20303;-74
